Station History

Weather Underground - logo

Station Historical Data
Daily Summary for January 24, 2018 Units:  Metric    English   Both
« Previous Day
Next Day »
Daily Weekly Monthly Yearly Custom
  High: Low: Average:
Temperature: 19.2 °C 1.2 °C 10.2 °C
Dew Point: 8.9 °C 0.5 °C 5.3 °C
Humidity: 97 % 41 % 75 %
Wind Speed: 11.1 km/h 0 km/h 0.6 km/h
Wind Gust: 11.1 km/h - -
Wind:- - WSW
Pressure: 1023.2 hPa 1016.1 hPa -
Precipitation: 0.25 mm    
Historical Graphs
 
 
Tabular Data for January 24, 2018
Time Temperature Dew Point Pressure Wind Wind Speed Wind Gust Humidity Rainfall Rate (Hourly)
00:04 4.1 °C 3.2 °C 1023.2 hPa Calm     94 % 0 mm
00:09 4.1 °C 3.2 °C 1023.2 hPa Calm     94 % 0 mm
00:14 4.1 °C 3.2 °C 1023.2 hPa Calm     94 % 0 mm
00:19 3.9 °C 2.8 °C 1022.9 hPa Calm     93 % 0 mm
00:24 3.9 °C 3 °C 1022.9 hPa Calm     94 % 0 mm
00:29 3.8 °C 2.9 °C 1022.9 hPa Calm     94 % 0 mm
00:34 3.9 °C 3 °C 1022.9 hPa Calm     94 % 0 mm
00:39 3.9 °C 3.1 °C 1022.9 hPa Calm     94 % 0 mm
00:44 4 °C 3.1 °C 1022.6 hPa Calm     94 % 0 mm
00:50 3.7 °C 2.8 °C 1022.6 hPa Calm     94 % 0 mm
00:55 3.6 °C 2.6 °C 1022.6 hPa Calm     93 % 0 mm
01:05 3.3 °C 2.4 °C 1022.6 hPa Calm     94 % 0 mm
01:10 3.1 °C 2.1 °C 1022.6 hPa Calm     93 % 0 mm
01:15 2.9 °C 1.9 °C 1022.6 hPa Calm     93 % 0 mm
01:20 2.8 °C 1.8 °C 1022.6 hPa Calm     93 % 0 mm
01:25 2.8 °C 1.8 °C 1022.6 hPa Calm     93 % 0 mm
01:30 2.8 °C 1.9 °C 1022.6 hPa Calm     94 % 0 mm
01:35 2.6 °C 1.6 °C 1022.6 hPa Calm     93 % 0 mm
01:40 2.5 °C 1.5 °C 1022.6 hPa Calm     93 % 0 mm
01:45 2.5 °C 1.6 °C 1022.6 hPa Calm     94 % 0 mm
01:50 2.6 °C 1.7 °C 1022.6 hPa Calm     94 % 0 mm
01:55 2.7 °C 1.8 °C 1022.6 hPa Calm     94 % 0 mm
02:00 2.7 °C 1.8 °C 1022.6 hPa Calm     94 % 0 mm
02:05 2.8 °C 1.9 °C 1022.6 hPa Calm   0.6 km/h 94 % 0 mm
02:10 2.9 °C 2.2 °C 1022.6 hPa Calm     95 % 0 mm
02:15 3.1 °C 2.3 °C 1022.6 hPa Calm     95 % 0 mm
02:20 3.1 °C 2.4 °C 1022.2 hPa Calm     95 % 0 mm
02:25 3.3 °C 2.6 °C 1022.2 hPa Calm     95 % 0 mm
02:30 3.4 °C 2.7 °C 1022.2 hPa Calm     95 % 0 mm
02:36 3.4 °C 2.7 °C 1022.2 hPa Calm     95 % 0 mm
02:41 3.4 °C 2.7 °C 1022.2 hPa Calm     95 % 0 mm
02:46 3.4 °C 2.7 °C 1022.2 hPa Calm     95 % 0 mm
02:51 3.3 °C 2.6 °C 1021.9 hPa Calm     95 % 0 mm
02:56 3.3 °C 2.6 °C 1021.9 hPa Calm     95 % 0 mm
03:01 3.2 °C 2.5 °C 1021.9 hPa Calm     95 % 0 mm
03:06 3.1 °C 2.4 °C 1021.9 hPa Calm     95 % 0 mm
03:11 2.8 °C 2.1 °C 1021.9 hPa Calm     95 % 0 mm
03:16 2.7 °C 1.8 °C 1021.9 hPa Calm     94 % 0 mm
03:21 2.8 °C 2.1 °C 1021.9 hPa Calm     95 % 0 mm
03:26 2.9 °C 2.2 °C 1021.9 hPa Calm     95 % 0 mm
03:31 2.9 °C 2.2 °C 1021.9 hPa Calm     95 % 0 mm
03:36 2.8 °C 2.1 °C 1021.9 hPa Calm     95 % 0 mm
03:41 2.6 °C 1.8 °C 1021.9 hPa Calm     95 % 0 mm
03:46 2.3 °C 1.4 °C 1021.9 hPa Calm     94 % 0 mm
03:51 2.4 °C 1.7 °C 1021.9 hPa Calm     95 % 0 mm
03:56 2.7 °C 1.9 °C 1021.9 hPa Calm     95 % 0 mm
04:01 2.8 °C 2.1 °C 1021.9 hPa Calm     95 % 0 mm
04:06 2.8 °C 2.1 °C 1021.9 hPa Calm     95 % 0 mm
04:11 2.8 °C 2.1 °C 1021.9 hPa Calm     95 % 0 mm
04:16 2.9 °C 2.2 °C 1021.9 hPa Calm     95 % 0 mm
04:21 2.9 °C 2.2 °C 1021.9 hPa Calm     95 % 0 mm
04:26 2.8 °C 2.1 °C 1021.9 hPa Calm     95 % 0 mm
04:31 2.8 °C 2.1 °C 1021.9 hPa Calm     95 % 0 mm
04:36 2.8 °C 2.1 °C 1021.9 hPa Calm     95 % 0 mm
04:41 2.8 °C 2.1 °C 1021.9 hPa Calm     95 % 0 mm
04:46 2.9 °C 2.3 °C 1021.9 hPa Calm     96 % 0 mm
04:51 2.9 °C 2.4 °C 1021.9 hPa Calm     96 % 0 mm
04:56 2.8 °C 2.3 °C 1021.9 hPa Calm     96 % 0 mm
05:01 2.8 °C 2.1 °C 1021.9 hPa Calm     95 % 0 mm
05:12 2.6 °C 1.9 °C 1021.9 hPa Calm     95 % 0 mm
05:17 2.4 °C 1.7 °C 1021.9 hPa Calm     95 % 0 mm
05:27 2 °C 1.3 °C 1021.9 hPa Calm     95 % 0 mm
05:32 1.9 °C 1.2 °C 1021.9 hPa Calm     95 % 0 mm
05:37 1.7 °C 1 °C 1021.9 hPa Calm     95 % 0 mm
05:42 1.6 °C 0.8 °C 1021.9 hPa Calm     95 % 0 mm
05:47 1.4 °C 0.7 °C 1021.9 hPa Calm     95 % 0 mm
05:52 1.3 °C 0.6 °C 1021.9 hPa Calm     95 % 0 mm
05:57 1.2 °C 0.5 °C 1021.9 hPa Calm     95 % 0 mm
06:02 1.3 °C 0.6 °C 1021.9 hPa Calm     95 % 0 mm
06:12 1.5 °C 0.8 °C 1021.9 hPa Calm     95 % 0 mm
06:17 1.6 °C 0.8 °C 1021.6 hPa Calm     95 % 0 mm
06:22 1.6 °C 1.1 °C 1021.6 hPa Calm     96 % 0 mm
06:27 1.6 °C 1.1 °C 1021.6 hPa Calm     96 % 0 mm
06:32 1.6 °C 0.8 °C 1021.6 hPa Calm     95 % 0 mm
06:37 1.5 °C 0.8 °C 1021.6 hPa Calm     95 % 0 mm
06:42 1.5 °C 0.9 °C 1021.9 hPa Calm     96 % 0 mm
06:47 1.4 °C 0.7 °C 1021.6 hPa Calm     95 % 0 mm
06:52 1.3 °C 0.6 °C 1021.9 hPa Calm     95 % 0 mm
06:57 1.3 °C 0.6 °C 1021.9 hPa Calm     95 % 0 mm
07:02 1.3 °C 0.6 °C 1021.6 hPa Calm     95 % 0 mm
07:08 1.3 °C 0.8 °C 1021.6 hPa Calm     96 % 0 mm
07:13 1.3 °C 0.8 °C 1021.6 hPa Calm     96 % 0 mm
07:18 1.3 °C 0.8 °C 1021.6 hPa Calm     96 % 0 mm
07:33 1.4 °C 0.8 °C 1021.6 hPa Calm     96 % 0 mm
07:38 1.4 °C 0.8 °C 1021.6 hPa Calm     96 % 0 mm
07:43 1.6 °C 1 °C 1021.6 hPa Calm     96 % 0 mm
07:48 1.8 °C 1.3 °C 1021.6 hPa Calm     96 % 0 mm
07:53 2 °C 1.4 °C 1021.9 hPa Calm     96 % 0 mm
07:58 2.3 °C 1.8 °C 1021.6 hPa Calm     96 % 0 mm
08:03 2.8 °C 2.3 °C 1021.6 hPa Calm     96 % 0 mm
08:08 3.3 °C 2.7 °C 1021.9 hPa Calm     96 % 0.25 mm
08:13 3.7 °C 3.1 °C 1021.9 hPa Calm     96 % 0.25 mm
08:23 4.3 °C 3.8 °C 1021.9 hPa Calm     96 % 0.25 mm
08:28 4.7 °C 4.3 °C 1021.9 hPa Calm     97 % 0.25 mm
08:33 5.1 °C 4.7 °C 1021.9 hPa Calm     97 % 0.25 mm
08:38 5.5 °C 5.1 °C 1021.9 hPa Calm     97 % 0.25 mm
08:48 6.3 °C 5.8 °C 1021.9 hPa Calm     97 % 0.25 mm
08:58 7.7 °C 7.2 °C 1021.9 hPa Calm     97 % 0.25 mm
09:03 8.6 °C 8 °C 1021.9 hPa Calm     96 % 0.25 mm
09:08 8.7 °C 7.1 °C 1021.9 hPa Calm     90 % 0 mm
09:13 8.8 °C 7.1 °C 1021.9 hPa Calm     89 % 0 mm
09:18 9.3 °C 7.4 °C 1021.9 hPa Calm     88 % 0 mm
09:23 9.9 °C 7.6 °C 1021.6 hPa ESE 1.9 km/h 1.9 km/h 85 % 0 mm
09:33 10.8 °C 8 °C 1021.6 hPa Calm     83 % 0 mm
09:43 11.5 °C 8.2 °C 1021.6 hPa SSE 1.9 km/h 1.9 km/h 80 % 0 mm
09:48 11.7 °C 8.2 °C 1021.6 hPa Calm     79 % 0 mm
09:53 11.5 °C 7.6 °C 1021.6 hPa Calm   0.2 km/h 77 % 0 mm
09:58 11.4 °C 7.9 °C 1021.6 hPa West 1.9 km/h 1.9 km/h 79 % 0 mm
10:03 11.4 °C 7.7 °C 1021.6 hPa WNW 1.9 km/h   78 % 0 mm
10:08 11.7 °C 7.9 °C 1021.6 hPa North 1.9 km/h 1.9 km/h 78 % 0 mm
10:13 11.7 °C 7.8 °C 1021.6 hPa WNW 1.9 km/h 1.9 km/h 77 % 0 mm
10:19 11.8 °C 7.9 °C 1021.6 hPa WSW 1.6 km/h 1.6 km/h 77 % 0 mm
10:24 12.2 °C 8.3 °C 1021.6 hPa Calm     77 % 0 mm
10:29 12.4 °C 7.9 °C 1021.6 hPa Calm     74 % 0 mm
10:34 12.7 °C 7.7 °C 1021.6 hPa Calm     72 % 0 mm
10:39 12.9 °C 7.9 °C 1021.2 hPa NW 1.9 km/h 1.9 km/h 72 % 0 mm
10:44 13.1 °C 7.8 °C 1021.2 hPa Calm     70 % 0 mm
10:49 13.6 °C 8.8 °C 1021.2 hPa SE 1.6 km/h   73 % 0 mm
10:59 14.6 °C 8.5 °C 1020.9 hPa SE 1.9 km/h 1.9 km/h 67 % 0 mm
11:04 15.1 °C 7.8 °C 1020.9 hPa ESE 1.9 km/h 1.9 km/h 62 % 0 mm
11:09 15.3 °C 8.3 °C 1020.9 hPa SE 1.9 km/h 1.9 km/h 63 % 0 mm
11:14 15.6 °C 8.3 °C 1020.5 hPa Calm     62 % 0 mm
11:19 15.9 °C 8.7 °C 1020.5 hPa Calm     62 % 0 mm
11:24 16 °C 8 °C 1020.5 hPa East 1.9 km/h 1.9 km/h 59 % 0 mm
11:29 16.1 °C 8.6 °C 1020.2 hPa NNE 1.9 km/h 1.9 km/h 61 % 0 mm
11:39 16.7 °C 8.6 °C 1020.2 hPa SSE 1.9 km/h 1.9 km/h 59 % 0 mm
11:44 16.6 °C 8.6 °C 1019.9 hPa SE 1.9 km/h   59 % 0 mm
11:49 16.7 °C 8.9 °C 1019.9 hPa SE 1.9 km/h   60 % 0 mm
11:54 16.9 °C 8.8 °C 1019.9 hPa SE 1.9 km/h 1.9 km/h 59 % 0 mm
11:59 16.9 °C 8.1 °C 1019.5 hPa NW 1.6 km/h 1.6 km/h 56 % 0 mm
12:10 16.9 °C 7.2 °C 1019.5 hPa Calm     53 % 0 mm
12:20 17.2 °C 7.6 °C 1019.2 hPa SSW 1.9 km/h 1.9 km/h 53 % 0 mm
12:25 17.4 °C 6.3 °C 1019.2 hPa Calm     48 % 0 mm
12:30 17.6 °C 6.4 °C 1019.2 hPa NNW 1.9 km/h 1.9 km/h 48 % 0 mm
12:35 17.8 °C 6.6 °C 1019.2 hPa NW 3.2 km/h 3.2 km/h 48 % 0 mm
12:40 18 °C 6.5 °C 1019.2 hPa NW 5.6 km/h 5.6 km/h 47 % 0 mm
12:45 18.1 °C 6.6 °C 1019.2 hPa NNE 4.8 km/h 4.8 km/h 47 % 0 mm
12:50 18.1 °C 6.6 °C 1018.8 hPa West 1.9 km/h 1.9 km/h 47 % 0 mm
12:55 18.3 °C 6.1 °C 1018.8 hPa WNW 1.9 km/h 1.9 km/h 45 % 0 mm
13:00 18.3 °C 6.4 °C 1018.8 hPa Calm     46 % 0 mm
13:05 18.3 °C 5.8 °C 1018.5 hPa Calm     44 % 0 mm
13:10 18.3 °C 5.8 °C 1018.5 hPa Calm     44 % 0 mm
13:15 18.2 °C 5.4 °C 1018.5 hPa Calm     43 % 0 mm
13:20 18.3 °C 6.1 °C 1018.2 hPa Calm     45 % 0 mm
13:25 18.3 °C 5.8 °C 1018.2 hPa Calm     44 % 0 mm
13:30 18.3 °C 5.5 °C 1018.2 hPa Calm     43 % 0 mm
13:35 18.4 °C 5.6 °C 1017.8 hPa Calm     43 % 0 mm
13:40 18.6 °C 6.4 °C 1017.8 hPa SE 1.9 km/h   45 % 0 mm
13:45 18.7 °C 6.6 °C 1017.8 hPa Calm     45 % 0 mm
13:50 18.8 °C 6.3 °C 1017.8 hPa Calm     44 % 0 mm
13:55 18.9 °C 6.4 °C 1017.8 hPa SE 1.9 km/h   44 % 0 mm
14:00 19 °C 6.1 °C 1017.5 hPa Calm     43 % 0 mm
14:05 18.9 °C 5.7 °C 1017.5 hPa Calm     42 % 0 mm
14:10 18.9 °C 5.3 °C 1017.5 hPa NW 1.9 km/h 1.9 km/h 41 % 0 mm
14:15 18.9 °C 5.7 °C 1017.5 hPa Calm     42 % 0 mm
14:20 19 °C 5.8 °C 1017.5 hPa NW 1.9 km/h   42 % 0 mm
14:25 19.1 °C 5.6 °C 1017.5 hPa NNW 1.6 km/h 1.6 km/h 41 % 0 mm
14:30 19.1 °C 5.9 °C 1017.2 hPa Calm     42 % 0 mm
14:35 19.2 °C 6.3 °C 1017.2 hPa WNW 1.9 km/h 1.9 km/h 43 % 0 mm
14:40 19.2 °C 6.3 °C 1017.2 hPa Calm     43 % 0 mm
14:45 19.2 °C 6.6 °C 1017.2 hPa Calm     44 % 0 mm
14:50 19.2 °C 7 °C 1017.2 hPa Calm   0.2 km/h 45 % 0 mm
14:55 19.2 °C 7.3 °C 1017.2 hPa NW 1.6 km/h 1.6 km/h 46 % 0 mm
15:00 19.2 °C 6.9 °C 1017.2 hPa Calm     45 % 0 mm
15:05 19.1 °C 7.2 °C 1017.2 hPa Calm     46 % 0 mm
15:10 19.1 °C 7.2 °C 1016.8 hPa Calm     46 % 0 mm
15:15 19.1 °C 7.2 °C 1016.8 hPa Calm     46 % 0 mm
15:21 19 °C 6.8 °C 1016.8 hPa Calm     45 % 0 mm
15:26 18.9 °C 6.7 °C 1016.8 hPa Calm     45 % 0 mm
15:31 18.9 °C 6.7 °C 1016.8 hPa Calm     45 % 0 mm
15:36 18.9 °C 6.4 °C 1016.8 hPa Calm     44 % 0 mm
15:41 18.9 °C 7 °C 1016.8 hPa Calm     46 % 0 mm
15:46 18.8 °C 6.3 °C 1016.8 hPa Calm     44 % 0 mm
15:51 18.7 °C 6.6 °C 1016.8 hPa Calm     45 % 0 mm
15:56 18.6 °C 6.4 °C 1016.8 hPa Calm     45 % 0 mm
16:01 18.5 °C 6.7 °C 1016.8 hPa Calm     46 % 0 mm
16:06 18.4 °C 6.9 °C 1016.8 hPa Calm     47 % 0 mm
16:10 18.3 °C 7.1 °C 1016.8 hPa Calm     48 % 0 mm
16:15 18.1 °C 6.9 °C 1016.8 hPa Calm     48 % 0 mm
16:20 17.9 °C 7.1 °C 1016.8 hPa Calm     49 % 0 mm
16:25 17.8 °C 7.2 °C 1016.8 hPa Calm     50 % 0 mm
16:31 17.6 °C 7.1 °C 1016.8 hPa Calm     50 % 0 mm
16:36 17.4 °C 7.2 °C 1016.8 hPa Calm     51 % 0 mm
16:41 17.2 °C 7.3 °C 1016.8 hPa Calm     52 % 0 mm
16:46 17.1 °C 7.4 °C 1016.8 hPa Calm     53 % 0 mm
16:51 16.9 °C 7.6 °C 1016.8 hPa Calm     54 % 0 mm
16:56 16.7 °C 7.3 °C 1016.8 hPa Calm     54 % 0 mm
17:01 16.5 °C 7.9 °C 1016.8 hPa Calm     57 % 0 mm
17:06 16.3 °C 7.7 °C 1016.8 hPa Calm     57 % 0 mm
17:11 16.1 °C 7.6 °C 1016.8 hPa Calm     57 % 0 mm
17:16 16.1 °C 7.8 °C 1016.8 hPa Calm     58 % 0 mm
17:21 15.9 °C 7.6 °C 1016.8 hPa Calm     58 % 0 mm
17:26 15.7 °C 7.5 °C 1016.8 hPa Calm     58 % 0 mm
17:31 15.7 °C 7.7 °C 1016.8 hPa Calm     59 % 0 mm
17:36 15.6 °C 8.3 °C 1016.8 hPa Calm     62 % 0 mm
17:41 14.9 °C 7.9 °C 1016.8 hPa Calm     63 % 0 mm
17:46 15 °C 7.8 °C 1016.8 hPa Calm     62 % 0 mm
17:51 15.1 °C 7.8 °C 1016.8 hPa Calm     62 % 0 mm
17:56 14.8 °C 7.8 °C 1016.8 hPa Calm     63 % 0 mm
18:01 14.6 °C 8.1 °C 1016.8 hPa Calm     65 % 0 mm
18:06 14.1 °C 7.8 °C 1016.8 hPa Calm     66 % 0 mm
18:11 14.1 °C 7.8 °C 1016.8 hPa Calm     66 % 0 mm
18:16 14.2 °C 7.7 °C 1016.8 hPa Calm     65 % 0 mm
18:21 14.2 °C 7.7 °C 1016.8 hPa Calm     65 % 0 mm
18:26 14.2 °C 7.7 °C 1016.8 hPa Calm     65 % 0 mm
18:31 14.4 °C 7.9 °C 1016.8 hPa Calm     65 % 0 mm
18:36 14.5 °C 8 °C 1016.8 hPa Calm     65 % 0 mm
18:40 14.4 °C 7.7 °C 1016.8 hPa Calm     64 % 0 mm
18:45 14.4 °C 7.7 °C 1016.8 hPa Calm     64 % 0 mm
18:50 14.3 °C 7.6 °C 1016.8 hPa Calm     64 % 0 mm
18:55 14.2 °C 7.1 °C 1016.8 hPa Calm     62 % 0 mm
19:00 14.2 °C 7.1 °C 1016.8 hPa Calm     62 % 0 mm
19:05 14.2 °C 6.8 °C 1016.5 hPa Calm     61 % 0 mm
19:06 14.2 °C 7.1 °C 1016.5 hPa Calm     62 % 0 mm
19:11 14.2 °C 6.8 °C 1016.5 hPa Calm     61 % 0 mm
19:16 14.1 °C 6.9 °C 1016.5 hPa Calm     62 % 0 mm
19:21 13.9 °C 6.9 °C 1016.5 hPa Calm     63 % 0 mm
19:26 13.7 °C 6.8 °C 1016.5 hPa Calm     63 % 0 mm
19:31 13.6 °C 6.7 °C 1016.5 hPa Calm     63 % 0 mm
19:36 13.4 °C 6.7 °C 1016.5 hPa Calm     64 % 0 mm
19:41 13.2 °C 6.7 °C 1016.5 hPa Calm     65 % 0 mm
19:46 12.9 °C 6.5 °C 1016.5 hPa Calm     65 % 0 mm
19:51 12.6 °C 7.1 °C 1016.5 hPa Calm     69 % 0 mm
19:56 12.1 °C 6.9 °C 1016.5 hPa Calm     71 % 0 mm
20:01 11.7 °C 7 °C 1016.5 hPa Calm     73 % 0 mm
20:06 11.3 °C 6.9 °C 1016.1 hPa Calm     74 % 0 mm
20:11 11.1 °C 6.8 °C 1016.1 hPa Calm     75 % 0 mm
20:16 10.8 °C 6.7 °C 1016.1 hPa Calm     76 % 0 mm
20:21 10.6 °C 6.7 °C 1016.5 hPa Calm     77 % 0 mm
20:26 10.5 °C 6.8 °C 1016.5 hPa Calm     78 % 0 mm
20:31 10.4 °C 6.7 °C 1016.5 hPa Calm     78 % 0 mm
20:36 10 °C 6.5 °C 1016.5 hPa Calm     79 % 0 mm
20:41 9.7 °C 6.4 °C 1016.5 hPa Calm     80 % 0 mm
20:46 9.6 °C 6.3 °C 1016.5 hPa Calm     80 % 0 mm
20:51 9.6 °C 6.4 °C 1016.8 hPa Calm     81 % 0 mm
20:56 9.6 °C 6.4 °C 1016.8 hPa Calm     81 % 0 mm
21:01 9.6 °C 6.3 °C 1016.8 hPa Calm     80 % 0 mm
21:06 9.6 °C 6.3 °C 1016.8 hPa Calm     80 % 0 mm
21:11 9.7 °C 6.4 °C 1016.8 hPa Calm     80 % 0 mm
21:16 9.8 °C 6.6 °C 1016.8 hPa Calm     80 % 0 mm
21:21 9.7 °C 6.4 °C 1016.5 hPa Calm     80 % 0 mm
21:26 9.5 °C 6.2 °C 1016.5 hPa Calm     80 % 0 mm
21:31 9.6 °C 6.2 °C 1016.8 hPa Calm     79 % 0 mm
21:36 9.4 °C 6.2 °C 1016.8 hPa Calm     80 % 0 mm
21:41 9.4 °C 5.8 °C 1016.8 hPa WNW 3.7 km/h   78 % 0 mm
21:46 9.7 °C 6 °C 1016.8 hPa West 1.9 km/h 1.9 km/h 78 % 0 mm
21:51 9.6 °C 5.9 °C 1017.2 hPa West 1.9 km/h 1.9 km/h 78 % 0 mm
21:56 9.8 °C 5.9 °C 1017.2 hPa Calm     77 % 0 mm
22:01 9.8 °C 5.7 °C 1017.2 hPa West 1.9 km/h   76 % 0 mm
22:06 9.8 °C 5.7 °C 1017.5 hPa Calm     76 % 0 mm
22:11 10.1 °C 6.2 °C 1017.5 hPa NNW 5.6 km/h 5.6 km/h 77 % 0 mm
22:16 10.5 °C 6.6 °C 1017.5 hPa NW 5.6 km/h 5.6 km/h 77 % 0 mm
22:21 10.9 °C 7.2 °C 1017.5 hPa West 5.6 km/h 5.6 km/h 78 % 0 mm
22:26 10.9 °C 7.3 °C 1017.5 hPa NNW 4.8 km/h 4.8 km/h 78 % 0 mm
22:31 11 °C 7.3 °C 1017.5 hPa NW 3.7 km/h 3.7 km/h 78 % 0 mm
22:36 10.9 °C 7.3 °C 1017.5 hPa NNW 3.7 km/h 3.7 km/h 78 % 0 mm
22:41 10.9 °C 7.4 °C 1017.5 hPa NW 5.6 km/h 5.6 km/h 79 % 0 mm
22:46 10.9 °C 7.4 °C 1017.5 hPa WNW 3.2 km/h 3.2 km/h 79 % 0 mm
22:51 10.8 °C 7.3 °C 1017.5 hPa WNW 5.6 km/h 5.6 km/h 79 % 0 mm
22:56 10.8 °C 7.4 °C 1017.5 hPa NW 3.7 km/h 3.7 km/h 80 % 0 mm
23:01 10.7 °C 7.3 °C 1017.5 hPa NW 1.6 km/h 1.6 km/h 80 % 0 mm
23:06 10.6 °C 7.4 °C 1017.5 hPa NW 1.9 km/h   81 % 0 mm
23:12 10.4 °C 7.3 °C 1017.5 hPa West 1.9 km/h 1.9 km/h 81 % 0 mm
23:17 10.3 °C 7.4 °C 1017.5 hPa NW 1.9 km/h 1.9 km/h 82 % 0 mm
23:22 10.2 °C 7.4 °C 1017.5 hPa NW 7.4 km/h 7.4 km/h 83 % 0 mm
23:27 10.2 °C 7.6 °C 1017.5 hPa NW 7.4 km/h 7.4 km/h 84 % 0 mm
23:32 10.3 °C 7.7 °C 1017.2 hPa NW 11.1 km/h 11.1 km/h 84 % 0 mm
23:37 10.4 °C 7.7 °C 1017.2 hPa SW 7.4 km/h 7.4 km/h 83 % 0 mm
23:42 10.4 °C 7.5 °C 1017.2 hPa NW 5.6 km/h 5.6 km/h 82 % 0 mm
23:47 10.5 °C 7.6 °C 1017.2 hPa NNW 5.6 km/h 5.6 km/h 82 % 0 mm
23:52 10.6 °C 7.6 °C 1017.2 hPa WNW 7.4 km/h 7.4 km/h 82 % 0 mm
23:57 10.6 °C 7.5 °C 1017.2 hPa NW 5.6 km/h 5.6 km/h 81 % 0 mm
Park Place, Exeter, Tulare County, California, USA
Compliments of Weather Underground - 2.75 mb